createdAt,value
2018-09-13T00:00:37.242Z,29.70
2018-09-13T00:03:04.806Z,30.17
2018-09-13T00:05:32.375Z,33.70
2018-09-13T00:08:00.747Z,29.73
2018-09-13T00:10:28.295Z,29.00
2018-09-13T00:12:55.858Z,31.77
2018-09-13T00:15:23.806Z,31.00
2018-09-13T00:17:51.357Z,29.10
2018-09-13T00:20:18.918Z,30.53
2018-09-13T00:22:46.525Z,29.90
2018-09-13T00:25:14.090Z,28.77
2018-09-13T00:27:41.650Z,30.97
2018-09-13T00:30:09.250Z,30.63
2018-09-13T00:32:36.818Z,30.23
2018-09-13T00:35:04.372Z,33.80
2018-09-13T00:37:31.988Z,32.80
2018-09-13T00:39:59.550Z,27.87
2018-09-13T00:42:27.118Z,32.73
2018-09-13T00:44:55.495Z,31.80
2018-09-13T00:47:23.053Z,31.40
2018-09-13T00:49:50.614Z,31.37
2018-09-13T00:52:18.210Z,30.27
2018-09-13T00:54:46.112Z,33.33
2018-09-13T00:57:13.688Z,35.00
2018-09-13T00:59:41.297Z,36.70
2018-09-13T01:02:08.855Z,33.17
2018-09-13T01:04:36.417Z,34.30
2018-09-13T01:07:04.530Z,35.77
2018-09-13T01:09:32.086Z,35.70
2018-09-13T01:11:59.645Z,44.87
2018-09-13T01:14:27.237Z,36.70
2018-09-13T01:16:54.797Z,37.63
2018-09-13T01:19:22.353Z,37.03
2018-09-13T01:21:50.402Z,37.03
2018-09-13T01:24:17.962Z,35.17
2018-09-13T01:26:45.517Z,36.87
2018-09-13T01:29:13.125Z,39.20
2018-09-13T01:31:40.692Z,40.10
2018-09-13T01:34:08.256Z,39.20
2018-09-13T01:36:35.846Z,38.37
2018-09-13T01:39:03.410Z,34.23
2018-09-13T01:41:30.987Z,37.33
2018-09-13T01:43:59.047Z,38.27
2018-09-13T01:46:26.605Z,36.40
2018-09-13T01:48:54.168Z,39.07
2018-09-13T01:51:21.951Z,37.20
2018-09-13T01:53:49.511Z,38.63
2018-09-13T01:56:17.071Z,38.50
2018-09-13T01:58:44.675Z,38.27
2018-09-13T02:01:12.229Z,43.33
2018-09-13T02:03:39.795Z,39.80
2018-09-13T02:06:08.251Z,43.35
2018-09-13T02:08:35.809Z,37.83
2018-09-13T02:11:03.377Z,38.60
2018-09-13T02:13:30.968Z,33.73
2018-09-13T02:15:58.520Z,38.53
2018-09-13T02:18:26.090Z,37.63
2018-09-13T02:20:54.027Z,36.30
2018-09-13T02:23:21.589Z,36.43
2018-09-13T02:25:49.148Z,35.03
2018-09-13T02:28:18.070Z,34.37
2018-09-13T02:30:45.079Z,35.63
2018-09-13T02:33:12.643Z,38.23
2018-09-13T02:35:40.233Z,35.97
2018-09-13T02:38:07.823Z,34.80
2018-09-13T02:40:35.351Z,40.75
2018-09-13T02:43:02.953Z,37.73
2018-09-13T02:45:30.509Z,34.23
2018-09-13T02:47:58.836Z,39.30
2018-09-13T02:50:26.909Z,35.30
2018-09-13T02:52:54.471Z,38.10
2018-09-13T02:55:22.036Z,38.90
2018-09-13T02:57:49.628Z,36.00
2018-09-13T03:00:17.955Z,42.47
2018-09-13T03:02:45.520Z,38.77
2018-09-13T03:05:13.122Z,40.00
2018-09-13T03:07:40.701Z,43.83
2018-09-13T03:10:09.343Z,37.00
2018-09-13T03:12:37.825Z,42.00
2018-09-13T03:15:05.391Z,37.67
2018-09-13T03:17:32.972Z,37.67
2018-09-13T03:20:00.564Z,39.33
2018-09-13T03:22:28.129Z,46.37
2018-09-13T03:24:55.690Z,37.60
2018-09-13T03:27:23.294Z,43.53
2018-09-13T03:29:50.857Z,40.67
2018-09-13T03:32:18.424Z,38.37
2018-09-13T03:34:46.732Z,40.10
2018-09-13T03:37:14.289Z,45.77
2018-09-13T03:39:41.849Z,39.77
2018-09-13T03:42:09.470Z,43.27
2018-09-13T03:44:37.010Z,41.13
2018-09-13T03:47:04.577Z,40.50
2018-09-13T03:49:32.170Z,44.00
2018-09-13T03:51:59.737Z,44.63
2018-09-13T03:54:27.297Z,41.43
2018-09-13T03:56:54.956Z,42.47
2018-09-13T03:59:22.490Z,44.65
2018-09-13T04:01:50.055Z,41.63
2018-09-13T04:04:17.936Z,39.07
2018-09-13T04:06:45.499Z,42.47
2018-09-13T04:09:13.062Z,40.03
2018-09-13T04:11:40.657Z,43.97
2018-09-13T04:14:09.038Z,35.23
2018-09-13T04:16:37.380Z,36.47
2018-09-13T04:19:04.997Z,39.57
2018-09-13T04:21:33.328Z,37.03
2018-09-13T04:24:00.897Z,39.20
2018-09-13T04:26:28.503Z,35.93
2018-09-13T04:28:57.066Z,44.80
2018-09-13T04:31:25.713Z,41.60
2018-09-13T04:33:53.308Z,44.50
2018-09-13T04:36:20.864Z,34.50
2018-09-13T04:38:48.425Z,38.43
2018-09-13T04:41:16.431Z,39.13
2018-09-13T04:43:43.992Z,45.03
2018-09-13T04:46:11.553Z,38.37
2018-09-13T04:48:39.158Z,41.13
2018-09-13T04:51:06.723Z,44.28
2018-09-13T04:53:34.573Z,43.30
2018-09-13T04:56:02.245Z,46.23
2018-09-13T04:58:29.818Z,40.93
2018-09-13T05:00:57.408Z,37.77
2018-09-13T05:03:26.343Z,43.60
2018-09-13T05:05:53.903Z,41.47
2018-09-13T05:08:21.462Z,40.23
2018-09-13T05:10:49.055Z,38.77
2018-09-13T05:13:16.619Z,42.13
2018-09-13T05:15:44.301Z,39.20
2018-09-13T05:18:11.891Z,44.78
2018-09-13T05:20:39.459Z,43.10
2018-09-13T05:23:07.033Z,38.57
2018-09-13T05:25:34.629Z,40.83
2018-09-13T05:28:02.191Z,38.97
2018-09-13T05:30:29.747Z,38.37
2018-09-13T05:32:57.385Z,40.13
2018-09-13T05:35:24.946Z,41.13
2018-09-13T05:37:52.508Z,40.97
2018-09-13T05:40:20.695Z,40.20
2018-09-13T05:42:48.255Z,40.53
2018-09-13T05:45:15.820Z,36.27
2018-09-13T05:47:43.424Z,39.07
2018-09-13T05:50:11.756Z,39.80
2018-09-13T05:52:39.329Z,41.33
2018-09-13T05:55:07.507Z,47.60
2018-09-13T05:57:35.065Z,44.03
2018-09-13T06:00:02.626Z,38.53
2018-09-13T06:02:30.528Z,44.00
2018-09-13T06:04:58.869Z,42.47
2018-09-13T06:07:26.431Z,39.87
2018-09-13T06:09:54.061Z,42.93
2018-09-13T06:12:21.634Z,43.23
2018-09-13T06:14:49.193Z,40.03
2018-09-13T06:17:16.809Z,38.27
2018-09-13T06:19:44.425Z,42.87
2018-09-13T06:22:11.939Z,43.43
2018-09-13T06:24:40.226Z,42.83
2018-09-13T06:27:08.562Z,41.50
2018-09-13T06:29:36.177Z,42.73
2018-09-13T06:32:04.197Z,40.00
2018-09-13T06:34:31.762Z,40.77
2018-09-13T06:36:59.367Z,42.83
2018-09-13T06:39:26.986Z,43.57
2018-09-13T06:41:54.552Z,44.73
2018-09-13T06:44:22.112Z,48.08
2018-09-13T06:46:49.730Z,45.90
2018-09-13T06:50:09.425Z,45.33
2018-09-13T06:52:37.932Z,46.55
2018-09-13T06:55:05.796Z,41.73
2018-09-13T06:57:33.364Z,39.60
2018-09-13T07:00:01.964Z,44.37
2018-09-13T07:02:29.587Z,43.23
2018-09-13T07:04:57.085Z,45.27
2018-09-13T07:07:24.733Z,49.15
2018-09-13T07:09:52.261Z,48.92
2018-09-13T07:12:19.822Z,40.13
2018-09-13T07:14:47.430Z,42.63
2018-09-13T07:17:14.994Z,42.17
2018-09-13T07:19:42.553Z,46.67
2018-09-13T07:22:10.187Z,46.43
2018-09-13T07:24:37.751Z,45.67
2018-09-13T07:27:05.307Z,45.27
2018-09-13T07:29:32.961Z,41.67
2018-09-13T07:32:00.535Z,46.80
2018-09-13T07:34:28.085Z,46.03
2018-09-13T07:36:55.786Z,43.50
2018-09-13T07:39:23.263Z,44.97
2018-09-13T07:41:50.820Z,43.93
2018-09-13T07:44:18.480Z,42.40
2018-09-13T07:46:46.042Z,42.63
2018-09-13T07:49:13.740Z,42.43
2018-09-13T07:51:41.649Z,49.37
2018-09-13T07:54:09.211Z,46.07
2018-09-13T07:56:36.772Z,47.80
2018-09-13T07:59:04.813Z,45.63
2018-09-13T08:01:32.385Z,48.37
2018-09-13T08:04:00.387Z,47.93
2018-09-13T08:06:28.751Z,43.90
2018-09-13T08:08:56.313Z,46.80
2018-09-13T08:11:23.879Z,47.87
2018-09-13T08:13:51.530Z,45.73
2018-09-13T08:16:19.082Z,45.23
2018-09-13T08:18:46.642Z,51.50
2018-09-13T08:21:14.280Z,42.47
2018-09-13T08:23:42.586Z,44.50
2018-09-13T08:26:10.158Z,45.30
2018-09-13T08:28:37.798Z,42.13
2018-09-13T08:31:05.361Z,42.80
2018-09-13T08:33:32.997Z,46.40
2018-09-13T08:36:01.019Z,45.03
2018-09-13T08:38:28.587Z,43.00
2018-09-13T08:40:56.151Z,42.80
2018-09-13T08:43:24.111Z,48.00
2018-09-13T08:45:52.081Z,44.77
2018-09-13T08:48:19.655Z,40.13
2018-09-13T08:50:47.257Z,43.83
2018-09-13T08:53:14.816Z,41.00
2018-09-13T08:55:43.141Z,43.00
2018-09-13T08:58:10.743Z,42.63
2018-09-13T09:00:38.320Z,42.67
2018-09-13T09:03:05.857Z,46.00
2018-09-13T09:05:33.466Z,44.13
2018-09-13T09:08:01.032Z,42.67
2018-09-13T09:10:28.593Z,45.83
2018-09-13T09:12:56.235Z,42.53
2018-09-13T09:15:24.576Z,43.93
2018-09-13T09:17:52.133Z,45.50
2018-09-13T09:20:20.180Z,42.17
2018-09-13T09:22:47.747Z,46.60
2018-09-13T09:25:15.309Z,44.27
2018-09-13T09:27:42.922Z,41.93
2018-09-13T09:30:11.248Z,43.10
2018-09-13T09:32:38.804Z,45.47
2018-09-13T09:35:06.511Z,40.10
2018-09-13T09:37:34.014Z,42.20
2018-09-13T09:40:01.576Z,43.30
2018-09-13T09:42:29.979Z,38.63
2018-09-13T09:44:57.540Z,44.38
2018-09-13T09:47:25.109Z,45.83
2018-09-13T09:49:53.074Z,40.97
2018-09-13T09:52:20.932Z,39.05
2018-09-13T09:54:48.443Z,38.17
2018-09-13T09:57:17.394Z,42.13
2018-09-13T09:59:44.961Z,39.57
2018-09-13T10:02:12.519Z,41.40
2018-09-13T10:04:40.641Z,41.17
2018-09-13T10:07:08.150Z,40.00
2018-09-13T10:09:35.715Z,37.53
2018-09-13T10:12:03.362Z,36.53
2018-09-13T10:14:30.918Z,38.87
2018-09-13T10:17:16.774Z,37.90
2018-09-13T10:19:44.337Z,37.63
2018-09-13T10:22:23.757Z,36.90
2018-09-13T10:24:53.897Z,38.13
2018-09-13T10:27:41.657Z,34.73
2018-09-13T10:30:18.195Z,33.30
2018-09-13T10:32:47.704Z,36.23
2018-09-13T10:35:34.276Z,33.37
2018-09-13T10:38:01.949Z,37.33
2018-09-13T10:40:35.057Z,39.22
2018-09-13T10:43:09.019Z,33.40
2018-09-13T10:45:36.588Z,30.60
2018-09-13T10:48:04.941Z,32.70
2018-09-13T10:50:32.618Z,27.07
2018-09-13T10:53:00.096Z,30.87
2018-09-13T10:55:27.715Z,30.80
2018-09-13T10:57:55.838Z,30.53
2018-09-13T11:00:23.410Z,30.87
2018-09-13T11:02:50.977Z,32.03
2018-09-13T11:05:18.591Z,35.63
2018-09-13T11:07:46.187Z,29.30
2018-09-13T11:10:13.745Z,30.23
2018-09-13T11:12:41.371Z,33.33
2018-09-13T11:15:08.953Z,30.63
2018-09-13T11:17:36.517Z,30.37
2018-09-13T11:20:04.123Z,32.03
2018-09-13T11:22:31.685Z,30.53
2018-09-13T11:24:59.250Z,31.23
2018-09-13T11:27:27.800Z,30.57
2018-09-13T11:29:55.369Z,28.37
2018-09-13T11:32:23.223Z,28.23
2018-09-13T11:34:50.840Z,31.37
2018-09-13T11:37:19.178Z,30.03
2018-09-13T11:39:46.789Z,28.97
2018-09-13T11:42:14.386Z,30.13
2018-09-13T11:44:41.916Z,29.63
2018-09-13T11:47:09.479Z,30.97
2018-09-13T11:49:37.095Z,29.90
2018-09-13T11:52:04.666Z,30.20
2018-09-13T11:54:32.230Z,32.90
2018-09-13T11:56:59.873Z,30.27
2018-09-13T11:59:27.435Z,32.30
2018-09-13T12:01:56.376Z,29.37
2018-09-13T12:04:24.747Z,28.87
2018-09-13T12:06:53.084Z,32.57
2018-09-13T12:09:20.671Z,32.43
2018-09-13T12:11:48.808Z,27.17
2018-09-13T12:14:16.371Z,31.55
2018-09-13T12:16:43.937Z,31.47
2018-09-13T12:19:11.590Z,28.60
2018-09-13T12:21:39.121Z,28.43
2018-09-13T12:24:06.682Z,29.87
2018-09-13T12:26:34.330Z,28.77
2018-09-13T12:29:01.891Z,29.40
2018-09-13T12:31:30.215Z,28.90
2018-09-13T12:33:58.172Z,29.33
2018-09-13T12:36:25.749Z,31.67
2018-09-13T12:38:53.320Z,32.47
2018-09-13T12:41:21.487Z,29.03
2018-09-13T12:43:49.044Z,33.53
2018-09-13T12:46:16.607Z,32.37
2018-09-13T12:48:44.789Z,33.40
2018-09-13T12:51:12.351Z,29.73
2018-09-13T12:53:39.909Z,29.73
2018-09-13T12:56:07.520Z,29.83
2018-09-13T12:58:35.084Z,30.83
2018-09-13T13:01:03.416Z,29.40
2018-09-13T13:03:31.036Z,32.60
2018-09-13T13:05:58.602Z,32.33
2018-09-13T13:08:26.165Z,31.87
2018-09-13T13:10:54.677Z,29.87
2018-09-13T13:13:22.251Z,29.53
2018-09-13T13:15:49.811Z,32.83
2018-09-13T13:18:17.470Z,30.90
2018-09-13T13:20:45.037Z,30.58
2018-09-13T13:23:12.606Z,30.48
2018-09-13T13:25:40.233Z,29.13
2018-09-13T13:28:07.797Z,32.83
2018-09-13T13:30:35.676Z,29.47
2018-09-13T13:33:03.639Z,28.47
2018-09-13T13:35:31.203Z,30.87
2018-09-13T13:37:58.801Z,28.07
2018-09-13T13:40:26.394Z,31.13
2018-09-13T13:42:53.957Z,32.07
2018-09-13T13:45:21.519Z,30.57
2018-09-13T13:47:49.521Z,29.67
2018-09-13T13:50:17.086Z,29.17
2018-09-13T13:52:44.653Z,32.55
2018-09-13T13:55:12.261Z,30.53
2018-09-13T13:57:40.595Z,30.10
2018-09-13T14:00:08.153Z,32.97
2018-09-13T14:02:35.772Z,29.80
2018-09-13T14:05:04.100Z,31.10
2018-09-13T14:07:31.663Z,32.13
2018-09-13T14:09:59.438Z,27.73
2018-09-13T14:12:26.871Z,32.27
2018-09-13T14:14:54.493Z,27.10
2018-09-13T14:17:22.833Z,25.30
2018-09-13T14:19:50.391Z,26.37
2018-09-13T14:22:18.039Z,22.83
2018-09-13T14:24:45.889Z,21.93
2018-09-13T14:27:14.239Z,26.63
2018-09-13T14:29:41.877Z,25.07
2018-09-13T14:32:09.641Z,27.77
2018-09-13T14:34:37.197Z,24.13
2018-09-13T14:37:04.760Z,24.40
2018-09-13T14:39:32.371Z,21.97
2018-09-13T14:41:59.951Z,23.33
2018-09-13T14:44:27.498Z,26.33
2018-09-13T14:46:55.106Z,24.23
2018-09-13T14:49:22.668Z,29.40
2018-09-13T14:51:50.232Z,24.97
2018-09-13T14:54:18.697Z,22.83
2018-09-13T14:56:46.264Z,27.45
2018-09-13T14:59:13.822Z,24.77
2018-09-13T15:01:41.986Z,25.53
2018-09-13T15:04:09.556Z,25.73
2018-09-13T15:06:37.115Z,22.40
2018-09-13T15:09:04.856Z,24.77
2018-09-13T15:11:32.338Z,23.30
2018-09-13T15:13:59.903Z,18.93
2018-09-13T15:16:28.070Z,26.30
2018-09-13T15:18:55.688Z,24.57
2018-09-13T15:21:23.207Z,19.83
2018-09-13T15:23:50.816Z,21.93
2018-09-13T15:26:18.834Z,19.33
2018-09-13T15:28:46.402Z,17.83
2018-09-13T15:31:14.107Z,18.10
2018-09-13T15:33:41.586Z,19.27
2018-09-13T15:36:09.180Z,21.93
2018-09-13T15:38:36.786Z,19.37
2018-09-13T15:41:04.318Z,17.13
2018-09-13T15:43:31.884Z,25.77
2018-09-13T15:46:00.343Z,26.60
2018-09-13T15:48:27.907Z,26.57
2018-09-13T15:50:55.467Z,27.00
2018-09-13T15:53:24.060Z,26.37
2018-09-13T15:55:51.632Z,29.23
2018-09-13T15:58:19.200Z,35.93
2018-09-13T16:00:46.803Z,30.50
2018-09-13T16:03:14.698Z,34.47
2018-09-13T16:05:42.567Z,35.80
2018-09-13T16:08:11.773Z,34.77
2018-09-13T16:10:39.331Z,35.97
2018-09-13T16:13:07.721Z,33.40
2018-09-13T16:15:35.305Z,34.67
2018-09-13T16:18:02.867Z,34.77
2018-09-13T16:20:30.434Z,36.47
2018-09-13T16:22:58.736Z,36.37
2018-09-13T16:25:26.297Z,36.10
2018-09-13T16:27:53.857Z,41.77
2018-09-13T16:30:21.496Z,39.90
2018-09-13T16:32:49.818Z,42.65
2018-09-13T16:35:17.442Z,40.97
2018-09-13T16:37:44.986Z,38.73
2018-09-13T16:40:12.572Z,39.63
2018-09-13T16:42:58.015Z,39.43
2018-09-13T16:45:25.577Z,36.87
2018-09-13T16:47:58.706Z,43.13
2018-09-13T16:50:27.113Z,39.77
2018-09-13T16:52:54.676Z,41.07
2018-09-13T16:55:22.976Z,46.37
2018-09-13T16:57:51.153Z,42.07
2018-09-13T17:00:18.717Z,46.60
2018-09-13T17:02:46.281Z,38.43
2018-09-13T17:05:14.250Z,39.73
2018-09-13T17:07:41.817Z,40.73
2018-09-13T17:10:09.368Z,42.30
2018-09-13T17:12:37.317Z,40.83
2018-09-13T17:15:04.881Z,41.27
2018-09-13T17:17:32.458Z,38.83
2018-09-13T17:20:00.099Z,35.30
2018-09-13T17:22:27.671Z,45.40
2018-09-13T17:24:55.256Z,37.30
2018-09-13T17:27:22.835Z,38.97
2018-09-13T17:29:50.398Z,37.30
2018-09-13T17:32:17.966Z,38.63
2018-09-13T17:34:47.141Z,41.57
2018-09-13T17:37:14.692Z,40.27
2018-09-13T17:39:42.258Z,54.78
2018-09-13T17:42:09.871Z,44.87
2018-09-13T17:44:37.454Z,44.40
2018-09-13T17:47:05.015Z,44.03
2018-09-13T17:49:32.620Z,37.50
2018-09-13T17:52:00.203Z,41.60
2018-09-13T17:54:27.762Z,42.37
2018-09-13T17:56:56.604Z,43.27
2018-09-13T17:59:24.172Z,38.43
2018-09-13T18:01:51.761Z,40.00
2018-09-13T18:04:19.376Z,39.30
2018-09-13T18:06:46.934Z,42.30
2018-09-13T18:09:14.535Z,40.03
2018-09-13T18:11:42.130Z,38.13
2018-09-13T18:14:10.502Z,41.83
2018-09-13T18:16:38.065Z,43.27
2018-09-13T18:19:06.793Z,57.53
2018-09-13T18:21:34.354Z,48.20
2018-09-13T18:24:01.918Z,43.70
2018-09-13T18:26:29.562Z,43.63
2018-09-13T18:28:57.128Z,43.83
2018-09-13T18:31:24.729Z,45.17
2018-09-13T18:33:52.352Z,40.83
2018-09-13T18:36:19.919Z,46.50
2018-09-13T18:38:47.485Z,46.78
2018-09-13T18:41:15.131Z,43.60
2018-09-13T18:43:42.693Z,45.17
2018-09-13T18:46:10.245Z,42.57
2018-09-13T18:48:37.883Z,41.77
2018-09-13T18:51:05.439Z,40.40
2018-09-13T18:53:33.008Z,42.60
2018-09-13T18:56:01.150Z,37.40
2018-09-13T18:58:28.782Z,41.80
2018-09-13T19:00:56.282Z,44.80
2018-09-13T19:03:24.443Z,39.10
2018-09-13T19:05:52.003Z,39.40
2018-09-13T19:08:19.558Z,37.20
2018-09-13T19:10:47.677Z,39.57
2018-09-13T19:13:15.438Z,36.17
2018-09-13T19:15:43.822Z,34.83
2018-09-13T19:18:13.809Z,35.73
2018-09-13T19:20:41.368Z,36.77
2018-09-13T19:23:08.930Z,35.27
2018-09-13T19:25:36.994Z,40.33
2018-09-13T19:28:04.559Z,41.33
2018-09-13T19:30:32.120Z,36.97
2018-09-13T19:32:59.761Z,37.57
2018-09-13T19:35:28.060Z,37.90
2018-09-13T19:37:55.622Z,40.33
2018-09-13T19:40:23.226Z,37.80
2018-09-13T19:42:51.553Z,37.00
2018-09-13T19:45:19.119Z,37.67
2018-09-13T19:47:47.231Z,36.27
2018-09-13T19:50:14.750Z,34.90
2018-09-13T19:52:42.326Z,40.37
2018-09-13T19:55:09.951Z,40.70
2018-09-13T19:57:37.508Z,36.50
2018-09-13T20:00:05.079Z,38.80
2018-09-13T20:02:32.731Z,37.47
2018-09-13T20:05:00.322Z,36.70
2018-09-13T20:07:28.590Z,35.20
2018-09-13T20:09:56.208Z,35.77
2018-09-13T20:12:24.044Z,32.80
2018-09-13T20:14:51.602Z,41.57
2018-09-13T20:17:19.671Z,37.47
2018-09-13T20:19:47.235Z,39.00
2018-09-13T20:22:14.794Z,36.43
2018-09-13T20:24:42.901Z,43.25
2018-09-13T20:27:10.426Z,35.77
2018-09-13T20:29:37.987Z,34.87
2018-09-13T20:32:05.645Z,39.22
2018-09-13T20:34:33.215Z,39.97
2018-09-13T20:37:00.777Z,34.70
2018-09-13T20:39:28.752Z,38.63
2018-09-13T20:41:56.352Z,42.10
2018-09-13T20:44:23.874Z,41.90
2018-09-13T20:46:51.494Z,41.47
2018-09-13T20:49:19.396Z,44.33
2018-09-13T20:51:46.956Z,44.07
2018-09-13T20:54:14.592Z,39.87
2018-09-13T20:56:42.164Z,41.57
2018-09-13T20:59:09.724Z,47.73
2018-09-13T21:01:37.358Z,45.00
2018-09-13T21:04:05.685Z,41.93
2018-09-13T21:06:33.247Z,41.13
2018-09-13T21:09:00.888Z,43.83
2018-09-13T21:11:28.450Z,43.60
2018-09-13T21:13:56.012Z,47.03
2018-09-13T21:16:23.627Z,41.83
2018-09-13T21:18:51.292Z,44.37
2018-09-13T21:21:19.616Z,47.93
2018-09-13T21:23:47.257Z,43.20
2018-09-13T21:26:14.829Z,41.67
2018-09-13T21:28:42.398Z,44.63
2018-09-13T21:31:10.032Z,45.43
2018-09-13T21:33:38.359Z,43.07
2018-09-13T21:36:05.922Z,45.13
2018-09-13T21:38:33.539Z,43.30
2018-09-13T21:41:01.096Z,43.13
2018-09-13T21:43:29.434Z,43.40
2018-09-13T21:45:57.092Z,43.37
2018-09-13T21:48:24.644Z,41.87
2018-09-13T21:50:52.201Z,46.27
2018-09-13T21:53:20.173Z,43.73
2018-09-13T21:55:47.741Z,48.80
2018-09-13T21:58:15.303Z,51.90
2018-09-13T22:00:43.885Z,47.37
2018-09-13T22:03:11.753Z,48.60
2018-09-13T22:05:39.310Z,53.53
2018-09-13T22:08:07.382Z,51.03
2018-09-13T22:10:34.941Z,53.77
2018-09-13T22:13:02.500Z,50.50
2018-09-13T22:15:30.109Z,49.47
2018-09-13T22:17:57.685Z,51.37
2018-09-13T22:20:26.022Z,50.40
2018-09-13T22:22:53.623Z,51.63
2018-09-13T22:25:21.940Z,48.57
2018-09-13T22:27:49.501Z,52.10
2018-09-13T22:30:17.099Z,56.87
2018-09-13T22:32:44.665Z,55.97
2018-09-13T22:35:12.504Z,60.80
2018-09-13T22:37:40.092Z,53.00
2018-09-13T22:40:07.655Z,55.07
2018-09-13T22:42:35.215Z,52.47
2018-09-13T22:45:02.841Z,55.63
2018-09-13T22:47:30.410Z,53.22
2018-09-13T22:49:57.982Z,53.77
2018-09-13T22:52:25.581Z,54.60
2018-09-13T22:54:53.909Z,50.77
2018-09-13T22:57:21.467Z,52.57
2018-09-13T22:59:49.077Z,46.77
2018-09-13T23:02:17.412Z,59.93
2018-09-13T23:04:44.967Z,55.10
2018-09-13T23:07:13.458Z,55.53
2018-09-13T23:09:41.019Z,55.23
2018-09-13T23:12:08.577Z,56.77
2018-09-13T23:14:36.172Z,55.77
2018-09-13T23:17:03.740Z,57.10
2018-09-13T23:19:31.318Z,58.27
2018-09-13T23:21:59.675Z,59.13
2018-09-13T23:24:27.235Z,59.67
2018-09-13T23:26:54.794Z,56.27
2018-09-13T23:29:22.392Z,57.90
2018-09-13T23:31:49.959Z,60.80
2018-09-13T23:34:17.544Z,57.23
2018-09-13T23:36:45.524Z,53.77
2018-09-13T23:39:13.118Z,52.40
2018-09-13T23:41:40.666Z,56.87
2018-09-13T23:44:08.251Z,55.07
2018-09-13T23:46:36.893Z,56.93
2018-09-13T23:49:04.456Z,57.40
2018-09-13T23:51:32.530Z,55.13
2018-09-13T23:54:00.088Z,57.53
2018-09-13T23:56:27.645Z,54.67
2018-09-13T23:58:55.246Z,49.23
